Time;durP1;ratioP1;P1;durP2;ratioP2;P2;SDS_P1;SDS_P2;PMS_P1;PMS_P2;Temp;Humidity;BMP_temperature;BMP_pressure;BME280_temperature;BME280_humidity;BME280_pressure;Samples;Min_cycle;Max_cycle;Signal;HPM_P1;HPM_P2
2023/12/04 00:01:10;;;;;;;13.93;5.47;;;;;;;;;;5105622;27;20495;-67
2023/12/04 00:04:50;;;;;;;10.32;4.30;;;;;;;;;;5103251;28;20062;-70
2023/12/04 00:08:30;;;;;;;11.75;4.40;;;;;;;;;;5095838;28;20839;-66
2023/12/04 00:12:11;;;;;;;7.90;4.20;;;;;;;;;;5108250;28;20071;-68
2023/12/04 00:15:51;;;;;;;7.20;3.50;;;;;;;;;;5106040;27;20078;-69
2023/12/04 00:19:33;;;;;;;5.32;3.67;;;;;;;;;;5106344;28;20040;-69
2023/12/04 00:23:15;;;;;;;4.63;3.40;;;;;;;;;;5108582;28;20051;-68
2023/12/04 00:26:55;;;;;;;7.82;3.25;;;;;;;;;;5069786;28;20056;-69
2023/12/04 00:30:37;;;;;;;4.70;2.72;;;;;;;;;;5062973;28;20060;-67
2023/12/04 00:34:17;;;;;;;5.00;3.35;;;;;;;;;;5063548;28;20136;-67
2023/12/04 00:37:58;;;;;;;5.80;2.75;;;;;;;;;;5060933;28;20648;-68
2023/12/04 00:41:38;;;;;;;4.72;2.80;;;;;;;;;;5061600;28;20044;-69
2023/12/04 00:45:19;;;;;;;4.97;2.33;;;;;;;;;;5062796;28;20639;-68
2023/12/04 00:48:59;;;;;;;5.15;2.70;;;;;;;;;;5060255;28;20045;-69
2023/12/04 00:52:39;;;;;;;5.70;2.50;;;;;;;;;;5061518;28;20045;-72
2023/12/04 00:56:20;;;;;;;5.18;3.00;;;;;;;;;;5064536;28;20141;-67
2023/12/04 01:00:00;;;;;;;4.45;2.53;;;;;;;;;;5057310;28;20481;-69
2023/12/04 01:03:41;;;;;;;5.45;2.97;;;;;;;;;;5059579;28;20053;-69
2023/12/04 01:07:21;;;;;;;4.40;3.00;;;;;;;;;;5064080;28;20036;-68
2023/12/04 01:11:02;;;;;;;5.60;3.38;;;;;;;;;;5060369;28;20090;-67
2023/12/04 01:14:43;;;;;;;6.20;2.45;;;;;;;;;;5063300;28;20048;-68
2023/12/04 01:18:23;;;;;;;3.45;2.15;;;;;;;;;;5061676;28;20534;-67
2023/12/04 01:22:04;;;;;;;3.35;2.08;;;;;;;;;;5058765;28;20128;-67
2023/12/04 01:25:45;;;;;;;3.75;2.17;;;;;;;;;;5085850;28;20134;-67
2023/12/04 01:29:25;;;;;;;2.83;2.42;;;;;;;;;;5100087;28;20047;-67
2023/12/04 01:33:05;;;;;;;3.20;2.33;;;;;;;;;;5104699;28;20078;-66
2023/12/04 01:36:45;;;;;;;8.07;2.08;;;;;;;;;;5099746;28;20452;-66
2023/12/04 01:40:26;;;;;;;6.78;2.30;;;;;;;;;;5098337;27;20052;-67
2023/12/04 01:44:07;;;;;;;4.55;2.42;;;;;;;;;;5095524;28;20517;-67
2023/12/04 01:47:48;;;;;;;4.75;2.30;;;;;;;;;;5102844;27;20119;-66
2023/12/04 01:51:28;;;;;;;3.28;2.20;;;;;;;;;;5102958;28;20040;-65
2023/12/04 01:55:11;;;;;;;4.88;2.17;;;;;;;;;;5099678;28;20416;-66
2023/12/04 01:58:51;;;;;;;5.68;2.38;;;;;;;;;;5096925;28;20047;-65
2023/12/04 02:02:31;;;;;;;3.05;2.03;;;;;;;;;;5099592;28;20053;-66
2023/12/04 02:06:12;;;;;;;3.40;1.92;;;;;;;;;;5099933;28;21444;-66
2023/12/04 02:09:53;;;;;;;2.53;1.85;;;;;;;;;;5102508;28;20133;-67
2023/12/04 02:13:34;;;;;;;3.50;2.13;;;;;;;;;;5103605;28;20047;-67
2023/12/04 02:17:14;;;;;;;3.20;1.90;;;;;;;;;;5099702;28;20057;-66
2023/12/04 02:20:55;;;;;;;3.28;1.80;;;;;;;;;;5099138;28;20392;-67
2023/12/04 02:24:35;;;;;;;2.83;1.85;;;;;;;;;;5104198;28;20348;-66
2023/12/04 02:28:22;;;;;;;2.70;1.70;;;;;;;;;;5103452;28;20137;-65
2023/12/04 02:32:02;;;;;;;3.22;1.73;;;;;;;;;;5101246;28;20054;-67
2023/12/04 02:35:43;;;;;;;4.15;1.83;;;;;;;;;;5098104;28;20495;-65
2023/12/04 02:39:23;;;;;;;3.95;1.92;;;;;;;;;;5096601;28;20043;-66
2023/12/04 02:43:04;;;;;;;2.80;1.73;;;;;;;;;;5101567;27;20071;-66
2023/12/04 02:46:46;;;;;;;2.55;1.60;;;;;;;;;;5101472;28;20590;-66
2023/12/04 02:50:26;;;;;;;3.88;1.50;;;;;;;;;;5103300;28;20036;-65
2023/12/04 02:54:08;;;;;;;2.58;1.25;;;;;;;;;;5100489;28;20115;-65
2023/12/04 02:57:48;;;;;;;3.15;1.60;;;;;;;;;;5093805;28;20040;-65
2023/12/04 03:01:29;;;;;;;2.42;1.50;;;;;;;;;;5103727;28;20032;-65
2023/12/04 03:05:09;;;;;;;4.03;1.83;;;;;;;;;;5098076;28;20044;-65
2023/12/04 03:08:49;;;;;;;1.80;1.30;;;;;;;;;;5100940;28;20043;-66
2023/12/04 03:12:30;;;;;;;2.45;1.55;;;;;;;;;;5095878;28;20094;-67
2023/12/04 03:16:10;;;;;;;2.13;1.30;;;;;;;;;;5092091;28;20100;-65
2023/12/04 03:19:50;;;;;;;2.33;1.30;;;;;;;;;;5102477;28;20489;-65
2023/12/04 03:23:31;;;;;;;2.63;1.50;;;;;;;;;;5098708;27;20539;-67
2023/12/04 03:27:13;;;;;;;3.05;1.40;;;;;;;;;;5100611;28;20040;-65
2023/12/04 03:30:55;;;;;;;2.15;1.48;;;;;;;;;;5106901;28;20050;-66
2023/12/04 03:34:35;;;;;;;2.88;1.45;;;;;;;;;;5101701;28;20086;-65
2023/12/04 03:38:15;;;;;;;3.78;1.60;;;;;;;;;;5102773;27;20043;-65
2023/12/04 03:41:56;;;;;;;3.22;1.52;;;;;;;;;;5095790;27;20044;-66
2023/12/04 03:45:36;;;;;;;3.22;1.40;;;;;;;;;;5102801;28;20104;-65
2023/12/04 03:49:17;;;;;;;2.25;1.52;;;;;;;;;;5099939;28;20445;-65
2023/12/04 03:52:59;;;;;;;2.20;1.40;;;;;;;;;;5105902;28;20055;-66
2023/12/04 03:56:39;;;;;;;2.67;1.42;;;;;;;;;;5108311;28;20077;-65
2023/12/04 04:00:19;;;;;;;5.10;1.27;;;;;;;;;;5103960;28;20513;-66
2023/12/04 04:04:00;;;;;;;1.63;1.10;;;;;;;;;;5104553;27;20123;-66
2023/12/04 04:07:41;;;;;;;2.13;1.10;;;;;;;;;;5105094;27;20051;-67
2023/12/04 04:11:21;;;;;;;3.70;1.40;;;;;;;;;;5101825;28;20496;-66
2023/12/04 04:15:02;;;;;;;3.00;1.23;;;;;;;;;;5105395;28;20521;-64
2023/12/04 04:18:43;;;;;;;2.67;1.38;;;;;;;;;;5104666;27;20035;-66
2023/12/04 04:22:23;;;;;;;4.00;1.48;;;;;;;;;;5104408;28;20131;-66
2023/12/04 04:26:03;;;;;;;1.50;1.15;;;;;;;;;;5104833;28;20058;-67
2023/12/04 04:29:43;;;;;;;2.83;1.40;;;;;;;;;;5105543;28;20086;-65
2023/12/04 04:33:24;;;;;;;3.28;1.20;;;;;;;;;;5095463;27;20035;-67
2023/12/04 04:37:04;;;;;;;3.15;1.50;;;;;;;;;;5100370;28;20043;-66
2023/12/04 04:40:44;;;;;;;2.70;1.40;;;;;;;;;;5101946;28;20067;-66
2023/12/04 04:44:26;;;;;;;4.15;1.40;;;;;;;;;;5096889;28;20087;-67
2023/12/04 04:48:06;;;;;;;3.38;1.40;;;;;;;;;;5101698;27;20047;-66
2023/12/04 04:51:47;;;;;;;2.72;1.40;;;;;;;;;;5098842;28;21568;-66
2023/12/04 04:55:27;;;;;;;1.55;1.20;;;;;;;;;;5101319;28;20329;-66
2023/12/04 04:59:07;;;;;;;2.58;1.40;;;;;;;;;;5096367;28;20410;-65
2023/12/04 05:02:48;;;;;;;1.55;1.30;;;;;;;;;;5101058;28;20124;-66
2023/12/04 05:06:28;;;;;;;1.58;1.10;;;;;;;;;;5101920;27;20039;-65
2023/12/04 05:10:12;;;;;;;2.72;1.50;;;;;;;;;;5093365;28;20070;-67
2023/12/04 05:13:52;;;;;;;3.33;1.40;;;;;;;;;;5103716;28;20047;-66
2023/12/04 05:17:32;;;;;;;6.38;1.60;;;;;;;;;;5099714;27;20047;-67
2023/12/04 05:21:15;;;;;;;7.50;1.77;;;;;;;;;;5102277;27;20059;-68
2023/12/04 05:24:56;;;;;;;4.05;1.60;;;;;;;;;;5095624;28;20051;-71
2023/12/04 05:28:36;;;;;;;2.63;1.50;;;;;;;;;;5098550;28;20044;-66
2023/12/04 05:32:16;;;;;;;4.85;2.00;;;;;;;;;;5099396;28;20118;-69
2023/12/04 05:35:57;;;;;;;3.90;2.00;;;;;;;;;;5100613;28;20504;-66
2023/12/04 05:39:37;;;;;;;3.58;1.63;;;;;;;;;;5101501;28;20571;-68
2023/12/04 05:43:18;;;;;;;4.93;1.80;;;;;;;;;;5102856;27;20054;-67
2023/12/04 05:46:58;;;;;;;2.80;1.70;;;;;;;;;;5091972;28;20100;-70
2023/12/04 05:50:38;;;;;;;2.80;1.80;;;;;;;;;;5104737;28;20064;-65
2023/12/04 05:54:20;;;;;;;1.98;1.45;;;;;;;;;;5103440;27;20047;-67
2023/12/04 05:58:00;;;;;;;2.53;1.58;;;;;;;;;;5103270;27;20448;-65
2023/12/04 06:01:40;;;;;;;3.28;1.80;;;;;;;;;;5101530;28;20063;-67
2023/12/04 06:05:21;;;;;;;3.10;1.52;;;;;;;;;;5101267;28;20036;-65
2023/12/04 06:09:01;;;;;;;2.30;1.75;;;;;;;;;;5103258;28;20039;-67
2023/12/04 06:12:41;;;;;;;3.92;1.88;;;;;;;;;;5099435;28;20043;-66
2023/12/04 06:16:22;;;;;;;3.00;1.95;;;;;;;;;;5099955;27;20441;-67
2023/12/04 06:20:02;;;;;;;3.20;2.00;;;;;;;;;;5099312;28;20039;-69
2023/12/04 06:23:43;;;;;;;2.90;1.88;;;;;;;;;;5097938;28;20100;-68
2023/12/04 06:27:24;;;;;;;4.25;1.67;;;;;;;;;;5063780;28;20475;-69
2023/12/04 06:31:04;;;;;;;4.45;1.80;;;;;;;;;;5063237;28;20064;-69
2023/12/04 06:34:47;;;;;;;4.97;1.90;;;;;;;;;;5065584;28;20527;-68
2023/12/04 06:38:30;;;;;;;3.00;1.80;;;;;;;;;;5064391;28;20051;-68
2023/12/04 06:42:11;;;;;;;2.97;1.75;;;;;;;;;;5054545;28;20056;-68
2023/12/04 06:45:51;;;;;;;3.72;1.80;;;;;;;;;;5065618;28;20044;-69
2023/12/04 06:49:32;;;;;;;3.67;1.90;;;;;;;;;;5064832;28;20731;-69
2023/12/04 06:53:12;;;;;;;3.30;1.85;;;;;;;;;;5061431;28;20044;-68
2023/12/04 06:56:52;;;;;;;6.07;2.15;;;;;;;;;;5054455;28;20049;-68
2023/12/04 07:00:33;;;;;;;4.22;1.75;;;;;;;;;;5058209;28;20098;-67
2023/12/04 07:04:20;;;;;;;4.80;1.98;;;;;;;;;;5055796;28;20048;-67
2023/12/04 07:07:55;;;;;;;4.25;1.88;;;;;;;;;;5058103;28;20044;-68
2023/12/04 07:11:35;;;;;;;6.05;1.77;;;;;;;;;;5053107;28;20044;-66
2023/12/04 07:15:15;;;;;;;3.08;1.67;;;;;;;;;;5060622;28;20361;-69
2023/12/04 07:18:56;;;;;;;1.95;1.42;;;;;;;;;;5062302;28;20036;-67
2023/12/04 07:22:36;;;;;;;2.78;1.70;;;;;;;;;;5059206;28;20122;-66
2023/12/04 07:26:17;;;;;;;4.05;1.80;;;;;;;;;;5087912;28;20392;-67
2023/12/04 07:29:58;;;;;;;5.35;1.88;;;;;;;;;;5097378;28;20048;-70
2023/12/04 07:33:38;;;;;;;3.72;2.00;;;;;;;;;;5088643;28;20092;-67
2023/12/04 07:37:19;;;;;;;3.95;1.50;;;;;;;;;;5099984;28;20069;-66
2023/12/04 07:40:59;;;;;;;2.30;1.50;;;;;;;;;;5092688;28;20044;-66
2023/12/04 07:44:09;;;;;;;4.28;1.80;;;;;;;;;;5098933;28;20085;-68
2023/12/04 07:46:35;;;;;;;6.32;2.33;;;;;;;;;;5084917;28;20565;-66
2023/12/04 07:49:02;;;;;;;3.60;1.42;;;;;;;;;;5095467;28;20056;-65
2023/12/04 07:51:29;;;;;;;5.60;2.53;;;;;;;;;;5108028;28;20059;-68
2023/12/04 07:53:55;;;;;;;5.38;1.27;;;;;;;;;;5087256;28;20409;-68
2023/12/04 07:56:22;;;;;;;5.13;2.03;;;;;;;;;;5108656;28;20446;-67
2023/12/04 07:58:47;;;;;;;4.18;1.73;;;;;;;;;;5104386;28;20067;-70
2023/12/04 08:01:15;;;;;;;3.80;2.13;;;;;;;;;;5107465;28;20047;-68
2023/12/04 08:03:40;;;;;;;6.85;2.20;;;;;;;;;;5108926;28;20044;-66
2023/12/04 08:06:07;;;;;;;3.08;1.50;;;;;;;;;;5109501;28;20116;-68
2023/12/04 08:08:34;;;;;;;2.33;1.50;;;;;;;;;;5109882;28;20460;-69
2023/12/04 08:11:03;;;;;;;3.45;1.63;;;;;;;;;;5110726;28;20039;-68
2023/12/04 08:13:30;;;;;;;2.75;1.40;;;;;;;;;;5109577;28;20048;-69
2023/12/04 08:16:02;;;;;;;9.65;1.95;;;;;;;;;;5110948;28;20135;-71
2023/12/04 08:18:28;;;;;;;5.70;1.70;;;;;;;;;;5110520;28;20438;-68
2023/12/04 08:20:55;;;;;;;4.10;1.60;;;;;;;;;;5086973;28;20092;-68
2023/12/04 08:24:01;;;;;;;4.25;1.90;;;;;;;;;;5101151;28;20074;-69
2023/12/04 08:27:42;;;;;;;2.70;1.65;;;;;;;;;;5098001;28;20498;-70
2023/12/04 08:31:23;;;;;;;7.50;1.95;;;;;;;;;;5095677;28;20516;-70
2023/12/04 08:35:06;;;;;;;3.35;1.70;;;;;;;;;;5101146;28;20451;-70
2023/12/04 08:38:45;;;;;;;2.95;1.60;;;;;;;;;;5097123;28;20046;-67
2023/12/04 08:42:26;;;;;;;3.50;1.45;;;;;;;;;;5094829;28;20677;-70
2023/12/04 08:46:07;;;;;;;4.68;1.75;;;;;;;;;;5101791;28;20048;-68
2023/12/04 08:49:46;;;;;;;3.72;1.80;;;;;;;;;;5103047;28;20051;-68
2023/12/04 08:53:27;;;;;;;3.50;2.00;;;;;;;;;;5094476;28;20139;-70
2023/12/04 08:57:07;;;;;;;3.78;1.58;;;;;;;;;;5101892;28;20047;-71
2023/12/04 09:00:47;;;;;;;3.90;1.77;;;;;;;;;;5095845;28;20065;-71
2023/12/04 09:04:28;;;;;;;6.38;1.50;;;;;;;;;;5101189;28;20424;-67
2023/12/04 09:08:08;;;;;;;7.32;1.80;;;;;;;;;;5103960;28;20498;-73
2023/12/04 09:11:48;;;;;;;7.90;1.88;;;;;;;;;;5101229;28;20091;-70
2023/12/04 09:15:30;;;;;;;6.80;1.73;;;;;;;;;;5099143;28;20054;-69
2023/12/04 09:19:10;;;;;;;6.78;1.40;;;;;;;;;;5104301;28;20196;-71
2023/12/04 09:22:51;;;;;;;3.28;1.60;;;;;;;;;;5104473;28;20078;-69
2023/12/04 09:26:31;;;;;;;5.32;1.13;;;;;;;;;;5103440;28;20128;-67
2023/12/04 09:30:12;;;;;;;3.45;1.30;;;;;;;;;;5099609;28;20100;-69
2023/12/04 09:33:52;;;;;;;1.05;0.85;;;;;;;;;;5102912;28;20623;-74
2023/12/04 09:37:32;;;;;;;2.05;1.20;;;;;;;;;;5102331;28;20071;-69
2023/12/04 09:41:13;;;;;;;3.72;1.40;;;;;;;;;;5101193;28;20089;-73
2023/12/04 09:44:54;;;;;;;3.20;1.08;;;;;;;;;;5100692;28;20048;-70
2023/12/04 09:48:33;;;;;;;2.80;1.02;;;;;;;;;;5102695;28;20044;-69
2023/12/04 09:52:14;;;;;;;1.17;0.90;;;;;;;;;;5100224;28;20055;-70
2023/12/04 09:55:55;;;;;;;3.92;1.27;;;;;;;;;;5106340;27;20067;-70
2023/12/04 09:59:35;;;;;;;1.85;0.95;;;;;;;;;;5103195;28;20415;-71
2023/12/04 10:03:15;;;;;;;4.72;1.30;;;;;;;;;;5101441;28;20068;-68
2023/12/04 10:06:55;;;;;;;2.95;1.17;;;;;;;;;;5102355;27;20119;-67
2023/12/04 10:10:37;;;;;;;3.33;1.30;;;;;;;;;;5096630;28;20131;-69
2023/12/04 10:14:19;;;;;;;5.90;1.48;;;;;;;;;;5090575;28;20067;-70
2023/12/04 10:17:59;;;;;;;6.50;1.02;;;;;;;;;;5096589;28;20075;-70
2023/12/04 10:21:39;;;;;;;4.88;1.40;;;;;;;;;;5099593;28;20044;-72
2023/12/04 10:25:21;;;;;;;4.93;1.45;;;;;;;;;;5101949;28;20063;-70
2023/12/04 10:29:05;;;;;;;4.25;1.40;;;;;;;;;;5102564;28;20577;-72
2023/12/04 10:32:45;;;;;;;6.13;1.30;;;;;;;;;;5099991;28;20568;-71
2023/12/04 10:36:28;;;;;;;4.60;1.65;;;;;;;;;;5098635;28;20059;-72
2023/12/04 10:40:09;;;;;;;6.22;1.75;;;;;;;;;;5097335;28;20078;-71
2023/12/04 10:43:08;;;;;;;2.97;1.45;;;;;;;;;;5099623;28;20051;-69
2023/12/04 10:46:49;;;;;;;3.55;1.42;;;;;;;;;;5105764;28;20061;-74
2023/12/04 10:50:29;;;;;;;5.45;1.50;;;;;;;;;;5106321;28;20059;-73
2023/12/04 10:54:12;;;;;;;4.90;1.50;;;;;;;;;;5099290;28;20035;-73
2023/12/04 10:57:53;;;;;;;8.30;1.60;;;;;;;;;;5098428;28;20040;-74
2023/12/04 11:01:34;;;;;;;3.50;1.20;;;;;;;;;;5089832;28;20067;-71
2023/12/04 11:05:16;;;;;;;4.97;1.55;;;;;;;;;;5098183;28;20090;-70
2023/12/04 11:08:54;;;;;;;4.82;1.50;;;;;;;;;;5099195;28;20044;-70
2023/12/04 11:12:35;;;;;;;2.00;1.15;;;;;;;;;;5101484;28;20171;-71
2023/12/04 11:16:16;;;;;;;8.32;1.25;;;;;;;;;;5100329;28;20116;-69
2023/12/04 11:19:24;;;;;;;2.00;1.00;;;;;;;;;;5099448;28;20565;-72
2023/12/04 11:23:06;;;;;;;3.22;1.13;;;;;;;;;;5099232;28;20039;-73
2023/12/04 11:26:45;;;;;;;6.50;1.30;;;;;;;;;;5099221;28;20043;-71
2023/12/04 11:30:27;;;;;;;3.50;0.95;;;;;;;;;;5104948;28;20051;-70
2023/12/04 11:34:07;;;;;;;5.13;1.20;;;;;;;;;;5106685;28;20063;-73
2023/12/04 11:37:48;;;;;;;3.63;1.30;;;;;;;;;;5108655;28;20048;-72
2023/12/04 11:42:00;;;;;;;4.85;1.10;;;;;;;;;;5105124;28;20058;-73
2023/12/04 11:45:40;;;;;;;7.95;1.38;;;;;;;;;;5114330;27;20402;-70
2023/12/04 11:49:19;;;;;;;4.53;1.33;;;;;;;;;;5100428;28;20050;-72
2023/12/04 11:53:00;;;;;;;3.83;1.30;;;;;;;;;;5104326;28;20180;-69
2023/12/04 11:56:40;;;;;;;5.07;1.30;;;;;;;;;;5103610;28;20043;-72
2023/12/04 12:00:24;;;;;;;3.13;1.20;;;;;;;;;;5099449;28;20066;-69
2023/12/04 12:04:04;;;;;;;5.25;1.20;;;;;;;;;;5106514;28;20108;-71
2023/12/04 12:07:49;;;;;;;5.28;1.20;;;;;;;;;;5106830;28;20066;-69
2023/12/04 12:11:30;;;;;;;5.10;1.23;;;;;;;;;;5102562;28;20051;-68
2023/12/04 12:15:10;;;;;;;6.30;1.85;;;;;;;;;;5105655;28;20043;-71
2023/12/04 12:18:52;;;;;;;2.53;1.30;;;;;;;;;;5107473;28;20039;-71
2023/12/04 12:22:32;;;;;;;3.67;1.10;;;;;;;;;;5101868;27;20529;-69
2023/12/04 12:26:12;;;;;;;4.07;1.30;;;;;;;;;;5106297;28;20043;-70
2023/12/04 12:29:53;;;;;;;3.53;1.15;;;;;;;;;;5105147;28;20047;-71
2023/12/04 12:33:33;;;;;;;3.80;1.33;;;;;;;;;;5102588;28;20055;-73
2023/12/04 12:37:14;;;;;;;5.38;1.10;;;;;;;;;;5098970;28;20059;-73
2023/12/04 12:40:54;;;;;;;3.35;1.17;;;;;;;;;;5106293;28;20043;-71
2023/12/04 12:44:34;;;;;;;1.98;1.15;;;;;;;;;;5099747;28;20055;-72
2023/12/04 12:48:16;;;;;;;2.80;1.20;;;;;;;;;;5102587;28;20058;-72
2023/12/04 12:51:56;;;;;;;3.10;1.40;;;;;;;;;;5104770;28;20157;-72
2023/12/04 12:55:42;;;;;;;4.07;1.20;;;;;;;;;;5106118;28;20593;-72
2023/12/04 12:59:22;;;;;;;8.40;1.10;;;;;;;;;;5102580;28;20095;-73
2023/12/04 13:03:04;;;;;;;2.75;1.33;;;;;;;;;;5107052;28;20537;-74
2023/12/04 13:06:46;;;;;;;2.83;1.35;;;;;;;;;;5102962;28;20051;-73
2023/12/04 13:10:29;;;;;;;3.08;1.05;;;;;;;;;;5108083;28;20131;-70
2023/12/04 13:14:11;;;;;;;4.10;1.20;;;;;;;;;;5106402;28;20257;-71
2023/12/04 13:17:53;;;;;;;5.50;1.20;;;;;;;;;;5106467;28;20593;-74
2023/12/04 13:21:33;;;;;;;2.60;1.30;;;;;;;;;;5096829;28;20111;-73
2023/12/04 13:25:14;;;;;;;2.40;1.02;;;;;;;;;;5100241;28;20055;-73
2023/12/04 13:28:55;;;;;;;1.83;0.90;;;;;;;;;;5102165;27;20052;-73
2023/12/04 13:32:36;;;;;;;1.75;1.08;;;;;;;;;;5100851;28;20403;-76
2023/12/04 13:36:16;;;;;;;1.35;0.95;;;;;;;;;;5099613;28;20048;-75
2023/12/04 13:39:58;;;;;;;2.95;1.02;;;;;;;;;;5103768;27;20092;-73
2023/12/04 13:43:50;;;;;;;6.47;1.35;;;;;;;;;;5102731;28;20500;-72
2023/12/04 13:47:30;;;;;;;2.22;1.00;;;;;;;;;;5099408;28;20078;-72
2023/12/04 13:51:11;;;;;;;2.47;0.85;;;;;;;;;;5097596;28;20139;-74
2023/12/04 13:54:54;;;;;;;2.75;0.93;;;;;;;;;;5101357;27;20103;-71
2023/12/04 13:58:39;;;;;;;3.42;1.02;;;;;;;;;;5102831;28;20043;-72
2023/12/04 14:02:17;;;;;;;1.92;1.08;;;;;;;;;;5099656;28;20047;-72
2023/12/04 14:05:58;;;;;;;3.33;0.88;;;;;;;;;;5098881;28;20093;-73
2023/12/04 14:09:39;;;;;;;2.13;1.00;;;;;;;;;;5102649;27;20093;-72
2023/12/04 14:13:20;;;;;;;1.45;0.80;;;;;;;;;;5099753;28;20117;-74
2023/12/04 14:17:03;;;;;;;1.65;1.00;;;;;;;;;;5099635;27;20039;-74
2023/12/04 14:20:41;;;;;;;2.83;0.77;;;;;;;;;;5098905;28;20388;-73
2023/12/04 14:24:21;;;;;;;0.82;0.80;;;;;;;;;;5103767;27;20043;-73
2023/12/04 14:28:02;;;;;;;1.00;0.70;;;;;;;;;;5103611;28;20036;-72
2023/12/04 14:31:42;;;;;;;1.25;0.80;;;;;;;;;;5097212;28;20095;-72
2023/12/04 14:35:22;;;;;;;1.15;0.90;;;;;;;;;;5096050;27;20051;-73
2023/12/04 14:39:03;;;;;;;2.65;0.60;;;;;;;;;;5102033;28;20503;-75
2023/12/04 14:42:43;;;;;;;4.35;0.90;;;;;;;;;;5102819;28;20111;-73
2023/12/04 14:46:24;;;;;;;0.98;0.82;;;;;;;;;;5096695;28;20078;-73
2023/12/04 14:50:04;;;;;;;2.25;0.80;;;;;;;;;;5104151;28;20048;-74
2023/12/04 14:54:12;;;;;;;4.93;0.80;;;;;;;;;;5102952;28;20051;-75
2023/12/04 15:13:07;;;;;;;2.20;1.10;;;;;;;;;;4990898;28;20550;-70
2023/12/04 15:16:40;;;;;;;1.30;0.70;;;;;;;;;;4983719;28;20054;-72
2023/12/04 15:23:20;;;;;;;2.65;0.95;;;;;;;;;;4989211;28;20418;-71
2023/12/04 15:27:00;;;;;;;0.63;0.60;;;;;;;;;;4983408;28;20042;-68
2023/12/04 15:30:47;;;;;;;4.57;0.82;;;;;;;;;;4990660;28;20562;-75
2023/12/04 15:34:28;;;;;;;3.65;1.00;;;;;;;;;;4982323;28;20087;-74
2023/12/04 15:38:09;;;;;;;4.95;1.23;;;;;;;;;;4995758;28;20136;-75
2023/12/04 15:41:51;;;;;;;4.30;1.33;;;;;;;;;;5003067;28;20210;-74
2023/12/04 15:45:33;;;;;;;2.15;0.90;;;;;;;;;;5030665;28;20126;-73
2023/12/04 15:49:13;;;;;;;1.95;1.02;;;;;;;;;;5101425;28;20083;-76
2023/12/04 15:52:54;;;;;;;1.17;0.88;;;;;;;;;;5087213;28;20047;-73
2023/12/04 15:56:34;;;;;;;2.92;1.08;;;;;;;;;;5097867;28;20666;-75
2023/12/04 16:00:15;;;;;;;1.60;0.90;;;;;;;;;;5087435;27;20205;-72
2023/12/04 16:03:57;;;;;;;2.97;0.70;;;;;;;;;;5085470;27;20048;-73
2023/12/04 16:07:41;;;;;;;3.55;0.80;;;;;;;;;;5091328;27;20133;-74
2023/12/04 16:11:22;;;;;;;5.75;0.85;;;;;;;;;;5090613;28;20054;-72
2023/12/04 16:15:03;;;;;;;1.75;0.80;;;;;;;;;;5089936;28;20071;-71
2023/12/04 16:18:44;;;;;;;2.00;0.93;;;;;;;;;;5088567;27;20503;-74
2023/12/04 16:22:24;;;;;;;0.90;0.70;;;;;;;;;;5087433;28;20047;-73
2023/12/04 16:26:06;;;;;;;1.75;0.80;;;;;;;;;;5093861;28;21009;-71
2023/12/04 16:29:47;;;;;;;3.45;0.70;;;;;;;;;;5092148;27;20056;-73
2023/12/04 16:33:30;;;;;;;1.20;0.80;;;;;;;;;;5090165;28;20108;-74
2023/12/04 16:37:10;;;;;;;4.45;0.80;;;;;;;;;;5089340;28;20043;-73
2023/12/04 16:40:50;;;;;;;0.80;0.63;;;;;;;;;;5095940;28;20043;-74
2023/12/04 16:44:30;;;;;;;0.70;0.57;;;;;;;;;;5091108;28;20437;-71
2023/12/04 16:48:11;;;;;;;1.67;0.80;;;;;;;;;;5096925;28;20043;-73
2023/12/04 16:51:52;;;;;;;1.27;0.88;;;;;;;;;;5088066;28;20056;-74
2023/12/04 16:54:54;;;;;;;2.33;0.90;;;;;;;;;;5080985;28;20090;-68
2023/12/04 16:57:24;;;;;;;1.92;0.80;;;;;;;;;;5097424;28;20048;-69
2023/12/04 16:59:51;;;;;;;0.93;0.82;;;;;;;;;;5096122;28;20064;-69
2023/12/04 17:02:17;;;;;;;3.22;0.70;;;;;;;;;;5084904;28;20055;-69
2023/12/04 17:04:44;;;;;;;1.15;0.70;;;;;;;;;;5085776;28;20047;-70
2023/12/04 17:07:10;;;;;;;2.50;0.80;;;;;;;;;;5101399;27;20047;-69
2023/12/04 17:09:38;;;;;;;1.00;0.75;;;;;;;;;;5104330;28;20055;-72
2023/12/04 17:12:05;;;;;;;2.08;0.90;;;;;;;;;;5081802;28;20405;-71
2023/12/04 17:14:31;;;;;;;2.63;1.10;;;;;;;;;;5103053;28;20142;-72
2023/12/04 17:16:57;;;;;;;3.20;0.70;;;;;;;;;;5099590;27;20135;-72
2023/12/04 17:19:24;;;;;;;2.67;0.90;;;;;;;;;;5082845;28;20074;-72
2023/12/04 17:21:51;;;;;;;3.20;0.90;;;;;;;;;;5104821;27;20127;-69
2023/12/04 17:24:16;;;;;;;1.52;0.90;;;;;;;;;;5104739;28;20146;-71
2023/12/04 17:26:43;;;;;;;2.78;1.00;;;;;;;;;;5079803;28;21167;-71
2023/12/04 17:29:09;;;;;;;2.05;0.93;;;;;;;;;;5089074;28;20074;-68
2023/12/04 17:31:38;;;;;;;1.88;0.98;;;;;;;;;;5109070;28;20869;-73
2023/12/04 17:34:06;;;;;;;1.27;0.90;;;;;;;;;;5083649;28;20051;-68
2023/12/04 17:36:33;;;;;;;1.20;0.80;;;;;;;;;;5101812;28;20069;-70
2023/12/04 17:38:59;;;;;;;1.95;1.02;;;;;;;;;;5090816;28;20563;-69
2023/12/04 17:42:05;;;;;;;1.42;0.95;;;;;;;;;;5108968;28;20097;-68
2023/12/04 17:45:46;;;;;;;1.50;1.00;;;;;;;;;;5102314;28;20046;-67
2023/12/04 17:49:26;;;;;;;2.22;1.45;;;;;;;;;;5103307;28;20043;-68
2023/12/04 17:53:07;;;;;;;3.05;0.90;;;;;;;;;;5103643;28;20048;-70
2023/12/04 17:56:50;;;;;;;3.25;1.00;;;;;;;;;;5097674;27;20567;-70
2023/12/04 18:00:33;;;;;;;1.48;1.00;;;;;;;;;;5099190;28;20046;-71
2023/12/04 18:04:14;;;;;;;1.42;1.23;;;;;;;;;;5102289;28;20059;-71
2023/12/04 18:07:55;;;;;;;1.13;0.73;;;;;;;;;;5103165;28;20514;-70
2023/12/04 18:11:34;;;;;;;1.83;1.10;;;;;;;;;;5098768;28;20040;-74
2023/12/04 18:15:15;;;;;;;2.40;0.82;;;;;;;;;;5092246;27;20116;-70
2023/12/04 18:18:57;;;;;;;1.33;0.80;;;;;;;;;;5092744;28;20040;-74
2023/12/04 18:22:37;;;;;;;3.53;1.20;;;;;;;;;;5102970;28;20055;-74
2023/12/04 18:26:19;;;;;;;1.33;1.00;;;;;;;;;;5100772;28;20458;-76
2023/12/04 18:29:59;;;;;;;1.70;1.00;;;;;;;;;;5096354;28;20497;-76
2023/12/04 18:33:40;;;;;;;1.13;1.02;;;;;;;;;;5104631;28;20600;-74
2023/12/04 18:37:26;;;;;;;1.02;0.93;;;;;;;;;;5097236;28;20066;-75
2023/12/04 18:41:06;;;;;;;3.88;1.20;;;;;;;;;;5097392;28;20043;-76
2023/12/04 18:44:47;;;;;;;2.13;1.08;;;;;;;;;;5094660;28;20116;-76
2023/12/04 18:48:27;;;;;;;0.85;0.82;;;;;;;;;;5098470;28;20040;-76
2023/12/04 18:52:07;;;;;;;2.05;1.00;;;;;;;;;;5110326;28;20040;-76
2023/12/04 18:55:49;;;;;;;3.72;0.90;;;;;;;;;;5105421;28;20047;-74
2023/12/04 18:59:31;;;;;;;1.38;0.90;;;;;;;;;;5096450;28;20415;-76
2023/12/04 19:03:13;;;;;;;1.65;1.00;;;;;;;;;;5098476;28;20047;-78
2023/12/04 19:06:53;;;;;;;1.65;0.90;;;;;;;;;;5103513;28;20070;-79
2023/12/04 19:10:34;;;;;;;1.40;0.90;;;;;;;;;;5103009;28;20040;-80
2023/12/04 19:14:15;;;;;;;1.15;1.05;;;;;;;;;;5098636;28;20058;-79
2023/12/04 19:17:56;;;;;;;2.22;1.20;;;;;;;;;;5105146;28;20039;-76
2023/12/04 19:21:37;;;;;;;3.35;0.90;;;;;;;;;;5095289;28;20043;-75
2023/12/04 19:25:17;;;;;;;1.95;1.13;;;;;;;;;;5103437;28;20063;-77
2023/12/04 19:28:58;;;;;;;1.40;0.88;;;;;;;;;;5111334;28;20134;-77
2023/12/04 19:32:41;;;;;;;2.42;1.20;;;;;;;;;;5111789;28;20046;-76
2023/12/04 19:36:25;;;;;;;1.35;1.00;;;;;;;;;;5097413;28;20124;-77
2023/12/04 19:40:11;;;;;;;2.28;1.30;;;;;;;;;;5099986;28;20276;-80
2023/12/04 19:43:50;;;;;;;1.92;1.30;;;;;;;;;;5102298;28;20043;-77
2023/12/04 19:47:28;;;;;;;1.80;1.30;;;;;;;;;;5113192;28;20130;-75
2023/12/04 19:51:09;;;;;;;2.58;1.48;;;;;;;;;;5099998;28;20046;-78
2023/12/04 19:54:52;;;;;;;3.42;1.67;;;;;;;;;;5101604;28;20044;-77
2023/12/04 19:58:34;;;;;;;2.55;1.38;;;;;;;;;;5109527;28;20043;-78
2023/12/04 20:02:15;;;;;;;3.72;1.40;;;;;;;;;;5107532;28;20087;-79
2023/12/04 20:05:55;;;;;;;3.55;1.70;;;;;;;;;;5109354;27;20043;-78
2023/12/04 20:09:37;;;;;;;1.60;1.30;;;;;;;;;;5102807;28;20967;-79
2023/12/04 20:13:17;;;;;;;2.80;1.50;;;;;;;;;;5101677;28;20056;-76
2023/12/04 20:16:56;;;;;;;1.85;1.55;;;;;;;;;;5095506;27;20040;-76
2023/12/04 20:20:37;;;;;;;2.45;1.35;;;;;;;;;;5102858;28;20599;-77
2023/12/04 20:24:20;;;;;;;3.42;1.60;;;;;;;;;;5100976;28;20047;-77
2023/12/04 20:28:02;;;;;;;4.32;1.63;;;;;;;;;;5103953;28;20054;-78
2023/12/04 20:31:45;;;;;;;1.77;1.40;;;;;;;;;;5098058;27;20342;-79
2023/12/04 20:35:25;;;;;;;2.42;1.40;;;;;;;;;;5100580;27;20047;-76
2023/12/04 20:39:08;;;;;;;2.28;1.27;;;;;;;;;;5098777;27;20040;-76
2023/12/04 20:42:46;;;;;;;3.85;1.38;;;;;;;;;;5099961;27;20104;-77
2023/12/04 20:46:26;;;;;;;1.67;1.30;;;;;;;;;;5101839;27;20472;-75
2023/12/04 20:50:10;;;;;;;2.13;1.38;;;;;;;;;;5104934;27;20087;-76
2023/12/04 20:53:50;;;;;;;2.72;1.45;;;;;;;;;;5105436;28;20126;-76
2023/12/04 20:57:33;;;;;;;3.03;1.45;;;;;;;;;;5110464;28;20180;-74
2023/12/04 21:01:13;;;;;;;4.03;1.55;;;;;;;;;;5103347;28;20040;-75
2023/12/04 21:04:54;;;;;;;3.58;1.75;;;;;;;;;;5099839;28;20082;-75
2023/12/04 21:08:35;;;;;;;3.33;1.25;;;;;;;;;;5104582;28;20066;-75
2023/12/04 21:12:15;;;;;;;3.92;1.63;;;;;;;;;;5100052;28;20040;-75
2023/12/04 21:15:55;;;;;;;4.47;1.58;;;;;;;;;;5104023;28;20380;-73
2023/12/04 21:19:38;;;;;;;3.45;1.80;;;;;;;;;;5102589;28;20098;-77
2023/12/04 21:23:20;;;;;;;5.63;1.67;;;;;;;;;;5106702;27;20073;-75
2023/12/04 21:27:02;;;;;;;3.20;1.90;;;;;;;;;;5099798;27;20044;-73
2023/12/04 21:30:42;;;;;;;3.50;2.05;;;;;;;;;;5103817;27;20412;-74
2023/12/04 21:34:22;;;;;;;3.47;1.38;;;;;;;;;;5103585;28;20507;-74
2023/12/04 21:38:02;;;;;;;2.25;1.50;;;;;;;;;;5105540;27;20047;-76